Time;durP1;ratioP1;P1;durP2;ratioP2;P2;SDS_P1;SDS_P2;PMS_P1;PMS_P2;Temp;Humidity;BMP_temperature;BMP_pressure;BME280_temperature;BME280_humidity;BME280_pressure;Samples;Min_cycle;Max_cycle;Signal;HPM_P1;HPM_P2
2022/08/02 00:01:13;;;;;;;2.42;2.33;;;;;;;;;;5061250;28;20115;-59
2022/08/02 00:03:38;;;;;;;2.88;2.67;;;;;;;;;;5062802;28;20115;-59
2022/08/02 00:06:04;;;;;;;2.53;2.33;;;;;;;;;;5063684;28;20063;-59
2022/08/02 00:08:29;;;;;;;2.78;2.40;;;;;;;;;;5061373;28;20115;-59
2022/08/02 00:10:54;;;;;;;4.07;2.42;;;;;;;;;;5061803;28;20036;-61
2022/08/02 00:13:19;;;;;;;3.03;2.83;;;;;;;;;;5064589;28;20040;-59
2022/08/02 00:15:45;;;;;;;2.65;2.45;;;;;;;;;;5063096;28;20024;-60
2022/08/02 00:18:10;;;;;;;2.97;2.78;;;;;;;;;;5062116;28;20028;-60
2022/08/02 00:20:35;;;;;;;3.17;2.90;;;;;;;;;;5062482;28;20028;-59
2022/08/02 00:23:00;;;;;;;2.80;2.60;;;;;;;;;;5065777;28;20020;-60
2022/08/02 00:25:26;;;;;;;3.45;2.78;;;;;;;;;;5063541;28;20413;-60
2022/08/02 00:27:51;;;;;;;2.72;2.53;;;;;;;;;;5062346;28;20861;-59
2022/08/02 00:30:16;;;;;;;3.05;2.75;;;;;;;;;;5061573;28;20398;-59
2022/08/02 00:32:41;;;;;;;2.63;2.42;;;;;;;;;;5064878;28;20150;-59
2022/08/02 00:35:07;;;;;;;2.95;2.75;;;;;;;;;;5064540;28;20029;-59
2022/08/02 00:37:37;;;;;;;3.33;3.13;;;;;;;;;;5062744;28;20279;-60
2022/08/02 00:40:02;;;;;;;3.13;2.92;;;;;;;;;;5062116;28;20488;-60
2022/08/02 00:42:27;;;;;;;4.18;2.65;;;;;;;;;;5064296;28;20044;-60
2022/08/02 00:44:53;;;;;;;3.05;2.60;;;;;;;;;;5046467;28;20052;-60
2022/08/02 00:47:18;;;;;;;3.28;2.80;;;;;;;;;;5061888;28;20042;-59
2022/08/02 00:49:43;;;;;;;2.80;2.60;;;;;;;;;;5060000;28;20549;-61
2022/08/02 00:52:08;;;;;;;2.75;2.55;;;;;;;;;;5063551;28;20032;-59
2022/08/02 00:54:34;;;;;;;2.95;2.65;;;;;;;;;;5040043;28;20047;-59
2022/08/02 00:56:59;;;;;;;2.90;2.70;;;;;;;;;;5061886;28;20390;-59
2022/08/02 00:59:24;;;;;;;3.13;2.78;;;;;;;;;;5062338;28;20040;-59
2022/08/02 01:01:50;;;;;;;2.72;2.63;;;;;;;;;;5063423;28;20028;-61
2022/08/02 01:04:16;;;;;;;2.95;2.75;;;;;;;;;;5045655;28;20446;-59
2022/08/02 01:06:41;;;;;;;3.20;2.90;;;;;;;;;;5063115;28;20032;-59
2022/08/02 01:09:07;;;;;;;3.22;3.00;;;;;;;;;;5064303;28;20025;-59
2022/08/02 01:11:33;;;;;;;3.38;3.17;;;;;;;;;;5046685;28;20104;-59
2022/08/02 01:14:06;;;;;;;4.03;2.90;;;;;;;;;;5062703;28;20028;-59
2022/08/02 01:16:35;;;;;;;8.23;6.18;;;;;;;;;;5034287;28;20051;-59
2022/08/02 01:19:06;;;;;;;6.95;3.50;;;;;;;;;;5061503;28;20471;-59
2022/08/02 01:21:37;;;;;;;6.85;5.35;;;;;;;;;;5062084;28;20031;-59
2022/08/02 01:24:05;;;;;;;3.22;3.03;;;;;;;;;;5061835;28;20027;-59
2022/08/02 01:26:39;;;;;;;3.40;3.17;;;;;;;;;;5058992;28;20036;-59
2022/08/02 01:29:07;;;;;;;2.78;2.60;;;;;;;;;;5060744;28;20020;-59
2022/08/02 01:31:53;;;;;;;4.22;2.88;;;;;;;;;;5061443;28;20123;-59
2022/08/02 01:34:28;;;;;;;3.17;2.97;;;;;;;;;;5060787;28;20052;-60
2022/08/02 01:37:06;;;;;;;2.92;2.83;;;;;;;;;;5063272;28;20130;-60
2022/08/02 01:39:33;;;;;;;2.83;2.63;;;;;;;;;;5059588;28;20535;-59
2022/08/02 01:41:59;;;;;;;3.25;3.15;;;;;;;;;;5060492;28;20106;-59
2022/08/02 01:44:26;;;;;;;2.80;2.60;;;;;;;;;;5060710;28;20466;-60
2022/08/02 01:46:54;;;;;;;3.03;2.83;;;;;;;;;;5063089;28;20032;-59
2022/08/02 01:49:20;;;;;;;2.70;2.60;;;;;;;;;;5064497;28;20467;-60
2022/08/02 01:54:32;;;;;;;3.53;2.88;;;;;;;;;;5060857;28;20142;-60
2022/08/02 01:56:58;;;;;;;4.07;2.65;;;;;;;;;;5064249;28;20032;-60
2022/08/02 01:59:24;;;;;;;3.38;3.08;;;;;;;;;;5060652;28;20024;-60
2022/08/02 02:01:50;;;;;;;2.75;2.60;;;;;;;;;;5061605;28;20055;-59
2022/08/02 02:04:16;;;;;;;2.88;2.60;;;;;;;;;;5061958;28;20119;-60
2022/08/02 02:06:41;;;;;;;3.05;2.67;;;;;;;;;;5065072;28;20039;-59
2022/08/02 02:09:07;;;;;;;2.63;2.42;;;;;;;;;;5062107;28;20020;-60
2022/08/02 02:11:33;;;;;;;2.97;2.53;;;;;;;;;;5058302;28;20510;-58
2022/08/02 02:14:00;;;;;;;2.60;2.50;;;;;;;;;;5026744;28;20043;-60
2022/08/02 02:16:26;;;;;;;2.65;2.55;;;;;;;;;;5042901;28;20031;-61
2022/08/02 02:18:52;;;;;;;3.00;2.80;;;;;;;;;;5061991;28;20025;-59
2022/08/02 02:21:18;;;;;;;3.28;3.08;;;;;;;;;;5041777;28;20494;-59
2022/08/02 02:23:43;;;;;;;2.92;2.72;;;;;;;;;;5061665;28;20040;-60
2022/08/02 02:26:10;;;;;;;2.90;2.70;;;;;;;;;;5063998;28;20036;-59
2022/08/02 02:28:36;;;;;;;3.22;2.95;;;;;;;;;;5061373;28;20510;-59
2022/08/02 02:31:06;;;;;;;2.92;2.72;;;;;;;;;;5059352;28;20038;-60
2022/08/02 02:33:34;;;;;;;3.50;3.20;;;;;;;;;;5061025;28;20065;-59
2022/08/02 02:36:00;;;;;;;2.88;2.67;;;;;;;;;;5062879;28;20017;-59
2022/08/02 02:38:27;;;;;;;3.05;2.83;;;;;;;;;;5060967;28;20059;-60
2022/08/02 02:40:53;;;;;;;2.58;2.47;;;;;;;;;;5061111;28;20774;-60
2022/08/02 02:43:19;;;;;;;3.22;2.90;;;;;;;;;;5063374;28;20037;-60
2022/08/02 02:45:45;;;;;;;2.75;2.63;;;;;;;;;;5063745;28;20051;-60
2022/08/02 02:48:12;;;;;;;3.17;2.90;;;;;;;;;;5043994;28;20039;-59
2022/08/02 02:50:37;;;;;;;2.92;2.72;;;;;;;;;;5060566;28;20381;-59
2022/08/02 02:53:03;;;;;;;2.88;2.67;;;;;;;;;;5063892;28;20029;-59
2022/08/02 02:55:30;;;;;;;2.65;2.45;;;;;;;;;;5047994;28;20023;-59
2022/08/02 02:57:55;;;;;;;3.22;3.03;;;;;;;;;;5065246;28;20028;-59
2022/08/02 03:01:26;;;;;;;2.80;2.60;;;;;;;;;;5046846;28;20463;-59
2022/08/02 03:03:06;;;;;;;3.13;2.90;;;;;;;;;;5066655;28;20028;-59
2022/08/02 03:05:31;;;;;;;3.20;2.88;;;;;;;;;;5048155;28;20345;-60
2022/08/02 03:07:57;;;;;;;2.70;2.50;;;;;;;;;;5064817;28;20154;-59
2022/08/02 03:10:22;;;;;;;3.25;3.08;;;;;;;;;;5065519;28;20052;-59
2022/08/02 03:12:47;;;;;;;3.40;3.08;;;;;;;;;;5065623;28;20387;-59
2022/08/02 03:15:12;;;;;;;3.28;3.08;;;;;;;;;;5042043;28;20196;-60
2022/08/02 03:17:39;;;;;;;3.20;3.00;;;;;;;;;;5064586;28;20532;-60
2022/08/02 03:20:08;;;;;;;3.40;3.20;;;;;;;;;;5062517;28;20036;-61
2022/08/02 03:22:33;;;;;;;3.38;3.17;;;;;;;;;;5064909;28;20097;-60
2022/08/02 03:24:58;;;;;;;3.22;3.03;;;;;;;;;;5065559;28;20037;-59
2022/08/02 03:27:24;;;;;;;2.88;2.70;;;;;;;;;;5063524;28;20039;-59
2022/08/02 03:29:49;;;;;;;3.83;3.63;;;;;;;;;;5064959;28;20032;-59
2022/08/02 03:32:14;;;;;;;3.58;3.28;;;;;;;;;;5048980;28;20028;-59
2022/08/02 03:34:39;;;;;;;3.42;3.17;;;;;;;;;;5063474;28;20711;-59
2022/08/02 03:37:05;;;;;;;3.30;3.00;;;;;;;;;;5063931;28;20470;-60
2022/08/02 03:39:31;;;;;;;3.05;2.92;;;;;;;;;;5063847;28;20599;-59
2022/08/02 03:41:57;;;;;;;2.70;2.50;;;;;;;;;;5063497;28;20165;-59
2022/08/02 03:44:23;;;;;;;2.92;2.72;;;;;;;;;;5061858;28;20024;-60
2022/08/02 03:46:48;;;;;;;3.33;2.85;;;;;;;;;;5062082;28;20062;-60
2022/08/02 03:49:15;;;;;;;3.53;2.95;;;;;;;;;;5063187;28;20035;-60
2022/08/02 03:51:40;;;;;;;3.30;3.05;;;;;;;;;;5028953;28;20085;-60
2022/08/02 03:54:06;;;;;;;3.25;3.05;;;;;;;;;;5061467;28;20153;-60
2022/08/02 03:56:31;;;;;;;3.28;2.97;;;;;;;;;;5060073;28;20036;-60
2022/08/02 03:59:06;;;;;;;2.75;2.55;;;;;;;;;;5060721;28;20071;-60
2022/08/02 04:01:31;;;;;;;2.60;2.40;;;;;;;;;;5060116;28;20469;-59
2022/08/02 04:03:57;;;;;;;2.30;2.20;;;;;;;;;;5039621;28;20035;-61
2022/08/02 04:06:22;;;;;;;2.72;2.53;;;;;;;;;;5058822;28;20038;-62
2022/08/02 04:08:47;;;;;;;2.53;2.42;;;;;;;;;;5063458;28;20036;-60
2022/08/02 04:11:30;;;;;;;2.50;2.40;;;;;;;;;;5065784;28;20032;-60
2022/08/02 04:14:00;;;;;;;2.40;2.28;;;;;;;;;;5061258;28;20029;-60
2022/08/02 04:16:55;;;;;;;2.33;2.20;;;;;;;;;;5060543;28;20522;-61
2022/08/02 04:19:25;;;;;;;2.80;2.60;;;;;;;;;;5041853;28;20040;-60
2022/08/02 04:21:51;;;;;;;2.75;2.55;;;;;;;;;;5061621;28;20036;-60
2022/08/02 04:24:17;;;;;;;2.60;2.50;;;;;;;;;;5062632;28;20032;-60
2022/08/02 04:26:43;;;;;;;2.22;2.03;;;;;;;;;;5060476;28;20079;-60
2022/08/02 04:29:09;;;;;;;2.38;2.22;;;;;;;;;;5060754;28;20077;-60
2022/08/02 04:31:35;;;;;;;2.17;2.00;;;;;;;;;;5059580;28;20135;-60
2022/08/02 04:34:00;;;;;;;2.92;2.72;;;;;;;;;;5061389;28;20040;-60
2022/08/02 04:36:25;;;;;;;2.33;2.22;;;;;;;;;;5062088;28;20332;-60
2022/08/02 04:38:51;;;;;;;2.17;2.08;;;;;;;;;;5062208;28;20032;-60
2022/08/02 04:41:16;;;;;;;2.17;2.00;;;;;;;;;;5061550;28;20487;-60
2022/08/02 04:43:41;;;;;;;2.22;2.13;;;;;;;;;;5059580;28;20496;-59
2022/08/02 04:46:07;;;;;;;2.15;2.00;;;;;;;;;;5042832;28;20029;-59
2022/08/02 04:48:32;;;;;;;2.20;2.10;;;;;;;;;;5063238;28;20386;-60
2022/08/02 04:50:57;;;;;;;1.92;1.83;;;;;;;;;;5059447;28;20028;-59
2022/08/02 04:53:23;;;;;;;2.83;2.45;;;;;;;;;;5059679;28;20045;-59
2022/08/02 04:55:48;;;;;;;2.00;1.90;;;;;;;;;;5059562;28;20038;-60
2022/08/02 04:58:13;;;;;;;2.33;2.22;;;;;;;;;;5060956;28;20040;-60
2022/08/02 05:00:38;;;;;;;2.72;2.30;;;;;;;;;;5057307;28;20416;-60
2022/08/02 05:03:04;;;;;;;2.05;1.95;;;;;;;;;;5060449;28;20408;-60
2022/08/02 05:05:29;;;;;;;2.13;2.03;;;;;;;;;;5061221;28;20029;-61
2022/08/02 05:07:54;;;;;;;2.35;2.05;;;;;;;;;;5062019;28;20028;-60
2022/08/02 05:10:20;;;;;;;1.65;1.65;;;;;;;;;;5059237;28;20031;-60
2022/08/02 05:12:45;;;;;;;2.17;1.90;;;;;;;;;;5060158;28;20040;-60
2022/08/02 05:15:11;;;;;;;2.78;2.30;;;;;;;;;;5061679;28;20025;-60
2022/08/02 05:17:37;;;;;;;2.45;2.30;;;;;;;;;;5044983;28;20036;-60
2022/08/02 05:20:03;;;;;;;2.53;2.30;;;;;;;;;;5041744;28;20078;-60
2022/08/02 05:22:28;;;;;;;2.03;1.92;;;;;;;;;;5060967;28;20029;-60
2022/08/02 05:24:53;;;;;;;2.67;2.58;;;;;;;;;;5043339;28;20475;-60
2022/08/02 05:27:19;;;;;;;2.70;2.50;;;;;;;;;;5059953;28;20500;-60
2022/08/02 05:29:44;;;;;;;6.72;2.72;;;;;;;;;;5057815;28;20553;-60
2022/08/02 05:32:09;;;;;;;2.65;2.40;;;;;;;;;;5062130;28;20178;-59
2022/08/02 05:34:35;;;;;;;2.40;2.30;;;;;;;;;;5060604;28;20159;-60
2022/08/02 05:37:00;;;;;;;2.10;2.00;;;;;;;;;;5055526;28;20111;-61
2022/08/02 05:39:25;;;;;;;1.90;1.80;;;;;;;;;;5056786;28;20483;-62
2022/08/02 05:41:51;;;;;;;2.85;2.15;;;;;;;;;;5060788;28;20084;-62
2022/08/02 05:44:16;;;;;;;2.25;2.13;;;;;;;;;;5060994;28;20024;-61
2022/08/02 05:46:42;;;;;;;2.85;2.30;;;;;;;;;;5057603;28;20147;-61
2022/08/02 05:49:08;;;;;;;2.70;2.50;;;;;;;;;;5054099;28;20032;-61
2022/08/02 05:51:51;;;;;;;2.92;2.75;;;;;;;;;;5060745;28;20036;-62
2022/08/02 05:54:26;;;;;;;2.72;2.53;;;;;;;;;;5061016;28;20718;-62
2022/08/02 05:56:59;;;;;;;2.75;2.58;;;;;;;;;;5057995;28;20043;-61
2022/08/02 05:59:32;;;;;;;2.45;2.35;;;;;;;;;;5060109;28;20427;-61
2022/08/02 06:02:01;;;;;;;2.90;2.70;;;;;;;;;;5063268;28;20078;-61
2022/08/02 06:04:33;;;;;;;2.55;2.35;;;;;;;;;;5060439;28;20074;-61
2022/08/02 06:07:01;;;;;;;2.63;2.42;;;;;;;;;;5058111;28;20561;-62
2022/08/02 06:09:27;;;;;;;2.50;2.20;;;;;;;;;;5061389;28;20112;-62
2022/08/02 06:11:52;;;;;;;2.42;2.33;;;;;;;;;;5059623;28;20028;-62
2022/08/02 06:14:18;;;;;;;2.17;2.08;;;;;;;;;;5023407;28;20032;-61
2022/08/02 06:16:44;;;;;;;2.58;2.47;;;;;;;;;;5039254;28;20039;-61
2022/08/02 06:19:12;;;;;;;2.22;2.03;;;;;;;;;;5059027;28;20028;-59
2022/08/02 06:21:41;;;;;;;2.83;2.42;;;;;;;;;;5059770;28;20036;-67
2022/08/02 06:24:08;;;;;;;2.70;2.60;;;;;;;;;;5042462;28;20410;-60
2022/08/02 06:26:35;;;;;;;3.88;2.92;;;;;;;;;;5033748;28;20036;-60
2022/08/02 06:29:00;;;;;;;2.38;2.28;;;;;;;;;;5060938;28;20039;-69
2022/08/02 06:31:25;;;;;;;2.63;2.33;;;;;;;;;;5061381;28;20390;-68
2022/08/02 06:33:50;;;;;;;2.53;2.28;;;;;;;;;;5059876;28;20028;-70
2022/08/02 06:36:26;;;;;;;2.50;2.40;;;;;;;;;;5061099;28;20065;-69
2022/08/02 06:39:02;;;;;;;2.40;2.30;;;;;;;;;;5063570;28;20024;-70
2022/08/02 06:41:28;;;;;;;2.15;2.05;;;;;;;;;;5061717;28;20141;-70
2022/08/02 06:43:58;;;;;;;2.45;2.33;;;;;;;;;;5064166;28;20068;-69
2022/08/02 06:46:23;;;;;;;2.92;2.72;;;;;;;;;;5046229;28;20041;-71
2022/08/02 06:48:49;;;;;;;2.83;2.60;;;;;;;;;;5067381;28;20040;-69
2022/08/02 06:51:14;;;;;;;2.80;2.70;;;;;;;;;;5065107;28;20480;-69
2022/08/02 06:53:39;;;;;;;2.67;2.47;;;;;;;;;;5064026;28;20063;-70
2022/08/02 06:56:05;;;;;;;5.72;2.42;;;;;;;;;;5065686;28;20058;-70
2022/08/02 06:58:30;;;;;;;3.50;3.08;;;;;;;;;;5048833;28;20411;-70
2022/08/02 07:00:56;;;;;;;2.65;2.42;;;;;;;;;;5065710;28;20390;-71
2022/08/02 07:03:21;;;;;;;2.78;2.58;;;;;;;;;;5064429;28;20429;-70
2022/08/02 07:05:49;;;;;;;2.85;2.58;;;;;;;;;;5047798;28;20629;-71
2022/08/02 07:08:15;;;;;;;2.85;2.65;;;;;;;;;;5048817;28;20530;-71
2022/08/02 07:10:40;;;;;;;3.28;2.97;;;;;;;;;;5066646;28;20028;-70
2022/08/02 07:13:05;;;;;;;2.60;2.38;;;;;;;;;;5066707;28;20359;-70
2022/08/02 07:15:31;;;;;;;7.85;2.97;;;;;;;;;;5065160;28;20980;-70
2022/08/02 07:17:56;;;;;;;5.78;3.13;;;;;;;;;;5066016;28;20026;-70
2022/08/02 07:20:21;;;;;;;7.13;2.80;;;;;;;;;;5044692;28;20093;-70
2022/08/02 07:22:46;;;;;;;2.70;2.50;;;;;;;;;;5062727;28;20032;-70
2022/08/02 07:25:12;;;;;;;2.67;2.53;;;;;;;;;;5065461;28;20913;-71
2022/08/02 07:27:37;;;;;;;3.28;2.20;;;;;;;;;;5066072;28;20141;-71
2022/08/02 07:30:03;;;;;;;2.38;2.28;;;;;;;;;;5044114;28;20028;-71
2022/08/02 07:32:30;;;;;;;2.35;2.25;;;;;;;;;;5062229;28;20024;-71
2022/08/02 07:34:56;;;;;;;3.47;2.47;;;;;;;;;;5065718;28;20470;-71
2022/08/02 07:37:26;;;;;;;4.40;3.33;;;;;;;;;;5066031;28;20021;-72
2022/08/02 07:39:51;;;;;;;3.05;2.50;;;;;;;;;;5062414;28;20149;-72
2022/08/02 07:42:17;;;;;;;2.70;2.50;;;;;;;;;;5062498;28;20048;-73
2022/08/02 07:44:42;;;;;;;2.42;2.30;;;;;;;;;;5065656;28;20036;-72
2022/08/02 07:47:07;;;;;;;2.72;2.60;;;;;;;;;;5046085;28;20039;-71
2022/08/02 07:49:32;;;;;;;2.40;2.30;;;;;;;;;;5042722;28;20051;-72
2022/08/02 07:51:58;;;;;;;3.47;2.30;;;;;;;;;;5062924;28;20474;-72
2022/08/02 07:54:23;;;;;;;2.85;2.63;;;;;;;;;;5065710;28;20163;-71
2022/08/02 07:56:48;;;;;;;2.72;2.53;;;;;;;;;;5064725;28;20024;-72
2022/08/02 07:59:14;;;;;;;2.53;2.42;;;;;;;;;;5062303;28;20482;-71
2022/08/02 08:01:40;;;;;;;3.28;2.50;;;;;;;;;;5063670;28;20462;-72
2022/08/02 08:04:05;;;;;;;3.20;2.60;;;;;;;;;;5047969;28;20029;-71
2022/08/02 08:06:30;;;;;;;2.72;2.60;;;;;;;;;;5063991;28;20040;-72
2022/08/02 08:08:56;;;;;;;2.53;2.33;;;;;;;;;;5062296;28;20024;-71
2022/08/02 08:11:21;;;;;;;3.63;2.50;;;;;;;;;;5063801;28;20029;-70
2022/08/02 08:13:47;;;;;;;2.80;2.60;;;;;;;;;;5065010;28;20029;-71
2022/08/02 08:16:12;;;;;;;2.88;2.55;;;;;;;;;;5062912;28;20657;-64
2022/08/02 08:18:37;;;;;;;2.88;2.65;;;;;;;;;;5062702;28;20394;-65
2022/08/02 08:21:03;;;;;;;3.38;3.15;;;;;;;;;;5063145;28;20082;-65
2022/08/02 08:23:28;;;;;;;3.15;2.67;;;;;;;;;;5057806;28;20483;-64
2022/08/02 08:25:53;;;;;;;3.22;2.78;;;;;;;;;;5057967;28;20395;-64
2022/08/02 08:28:18;;;;;;;3.42;3.17;;;;;;;;;;5061151;28;20040;-61
2022/08/02 08:30:46;;;;;;;2.92;2.70;;;;;;;;;;5061338;28;20076;-62
2022/08/02 08:33:11;;;;;;;4.65;3.25;;;;;;;;;;5061310;28;20020;-63
2022/08/02 08:35:37;;;;;;;3.30;2.45;;;;;;;;;;5061138;28;20154;-62
2022/08/02 08:38:02;;;;;;;2.72;2.53;;;;;;;;;;5061752;28;20055;-66
2022/08/02 08:40:27;;;;;;;2.97;2.70;;;;;;;;;;5060174;28;20495;-67
2022/08/02 08:42:53;;;;;;;2.70;2.58;;;;;;;;;;5063077;28;20040;-67
2022/08/02 08:45:18;;;;;;;3.85;3.55;;;;;;;;;;5043887;28;20469;-67
2022/08/02 08:47:46;;;;;;;3.20;2.97;;;;;;;;;;5060424;28;20563;-67
2022/08/02 08:50:17;;;;;;;3.38;3.17;;;;;;;;;;5059990;28;20048;-67
2022/08/02 08:52:47;;;;;;;3.08;2.88;;;;;;;;;;5062541;28;20067;-67
2022/08/02 08:55:14;;;;;;;3.35;3.15;;;;;;;;;;5056186;28;20025;-67
2022/08/02 08:57:41;;;;;;;3.70;2.63;;;;;;;;;;5058464;28;20032;-67
2022/08/02 09:00:07;;;;;;;3.03;2.72;;;;;;;;;;5059543;28;20029;-66
2022/08/02 09:02:36;;;;;;;6.38;2.78;;;;;;;;;;5057315;28;20594;-65
2022/08/02 09:05:01;;;;;;;3.33;3.13;;;;;;;;;;5056224;28;20032;-66
2022/08/02 09:07:27;;;;;;;3.17;3.05;;;;;;;;;;5057244;28;20386;-68
2022/08/02 09:09:52;;;;;;;4.35;3.45;;;;;;;;;;5058506;28;20044;-67
2022/08/02 09:12:20;;;;;;;3.33;2.80;;;;;;;;;;5060182;28;20529;-66
2022/08/02 09:14:46;;;;;;;4.25;2.65;;;;;;;;;;5058366;28;20032;-68
2022/08/02 09:17:11;;;;;;;2.90;2.70;;;;;;;;;;5059195;28;20032;-69
2022/08/02 09:19:37;;;;;;;3.22;2.90;;;;;;;;;;5039843;28;20667;-69
2022/08/02 09:22:03;;;;;;;2.53;2.42;;;;;;;;;;5055826;28;20035;-69
2022/08/02 09:24:29;;;;;;;3.50;2.60;;;;;;;;;;5054866;28;20024;-68
2022/08/02 09:26:54;;;;;;;2.95;2.75;;;;;;;;;;5059336;28;20036;-68
2022/08/02 09:29:22;;;;;;;3.08;2.80;;;;;;;;;;5059442;28;20024;-67
2022/08/02 09:31:48;;;;;;;2.80;2.58;;;;;;;;;;5057104;28;20051;-68
2022/08/02 09:34:13;;;;;;;3.00;2.80;;;;;;;;;;5058815;28;20486;-68
2022/08/02 09:36:40;;;;;;;4.72;2.50;;;;;;;;;;5061738;28;20558;-68
2022/08/02 09:39:06;;;;;;;2.85;2.75;;;;;;;;;;5058945;28;20048;-69
2022/08/02 09:41:33;;;;;;;4.45;3.25;;;;;;;;;;5056583;28;20439;-69
2022/08/02 09:44:01;;;;;;;2.97;2.78;;;;;;;;;;5058219;28;20127;-68
2022/08/02 09:46:28;;;;;;;2.33;2.22;;;;;;;;;;5060632;28;20047;-68
2022/08/02 09:48:54;;;;;;;2.53;2.42;;;;;;;;;;5057446;28;20025;-70
2022/08/02 09:51:27;;;;;;;3.20;2.95;;;;;;;;;;5056703;28;20574;-68
2022/08/02 09:53:54;;;;;;;3.08;2.88;;;;;;;;;;5056913;28;20039;-67
2022/08/02 09:56:19;;;;;;;3.35;3.13;;;;;;;;;;5057249;28;20078;-68
2022/08/02 09:58:45;;;;;;;2.90;2.70;;;;;;;;;;5057381;28;20537;-68
2022/08/02 10:01:10;;;;;;;5.57;2.72;;;;;;;;;;5058515;28;20530;-68
2022/08/02 10:03:35;;;;;;;4.15;3.80;;;;;;;;;;5056246;28;20047;-67
2022/08/02 10:06:01;;;;;;;3.40;3.20;;;;;;;;;;5057643;28;20033;-68
2022/08/02 10:08:27;;;;;;;4.50;2.67;;;;;;;;;;5034633;28;20043;-68
2022/08/02 10:10:59;;;;;;;3.35;3.17;;;;;;;;;;5057344;28;20025;-68
2022/08/02 10:13:34;;;;;;;3.03;2.92;;;;;;;;;;5038530;28;20032;-64
2022/08/02 10:16:01;;;;;;;3.28;2.97;;;;;;;;;;5057104;28;20031;-64
2022/08/02 10:18:27;;;;;;;3.65;3.08;;;;;;;;;;5059524;28;20021;-64
2022/08/02 10:20:54;;;;;;;3.00;2.90;;;;;;;;;;5040888;28;20028;-63
2022/08/02 10:23:19;;;;;;;3.22;3.05;;;;;;;;;;5062679;28;20071;-67
2022/08/02 10:25:46;;;;;;;3.38;3.10;;;;;;;;;;5060917;28;20033;-62
2022/08/02 10:28:14;;;;;;;3.08;2.85;;;;;;;;;;5059851;28;20524;-63
2022/08/02 10:30:41;;;;;;;3.00;2.85;;;;;;;;;;5044209;28;20546;-65
2022/08/02 10:33:08;;;;;;;4.18;2.78;;;;;;;;;;5062675;28;20112;-65
2022/08/02 10:35:35;;;;;;;2.85;2.75;;;;;;;;;;5061279;28;20032;-64
2022/08/02 10:38:02;;;;;;;3.28;3.10;;;;;;;;;;5061345;28;20032;-61
2022/08/02 10:40:46;;;;;;;3.88;3.55;;;;;;;;;;5061028;28;20036;-66
2022/08/02 10:43:27;;;;;;;3.20;3.00;;;;;;;;;;5058262;28;20028;-65
2022/08/02 10:45:52;;;;;;;3.15;2.95;;;;;;;;;;5058746;28;20035;-64
2022/08/02 10:48:17;;;;;;;3.30;3.20;;;;;;;;;;5061472;28;20028;-63
2022/08/02 10:50:45;;;;;;;2.58;2.47;;;;;;;;;;5061852;28;20550;-64
2022/08/02 10:53:30;;;;;;;2.72;2.63;;;;;;;;;;5059449;28;20130;-64
2022/08/02 10:56:02;;;;;;;2.65;2.55;;;;;;;;;;5059958;28;20029;-65
2022/08/02 10:58:30;;;;;;;3.20;3.10;;;;;;;;;;5063925;28;20115;-65
2022/08/02 11:00:56;;;;;;;3.83;3.20;;;;;;;;;;5062144;28;20040;-64
2022/08/02 11:03:27;;;;;;;2.85;2.75;;;;;;;;;;5060451;28;20032;-64
2022/08/02 11:06:09;;;;;;;4.68;4.25;;;;;;;;;;5059644;28;20459;-63
2022/08/02 11:08:35;;;;;;;3.28;3.10;;;;;;;;;;5062065;28;20086;-64
2022/08/02 11:11:09;;;;;;;3.13;2.72;;;;;;;;;;5058110;28;20017;-63
2022/08/02 11:13:34;;;;;;;;;;;;;;;;;;5059120;28;20029;-65
2022/08/02 11:16:01;;;;;;;3.20;3.10;;;;;;;;;;5061623;28;19909;-64
2022/08/02 11:18:45;;;;;;;3.13;3.03;;;;;;;;;;5066586;28;20075;-64
2022/08/02 11:21:19;;;;;;;2.63;2.53;;;;;;;;;;5064492;28;20669;-64
2022/08/02 11:23:45;;;;;;;3.28;3.08;;;;;;;;;;5056218;28;20368;-61
2022/08/02 11:26:28;;;;;;;3.55;3.35;;;;;;;;;;5060861;28;20089;-60
2022/08/02 11:28:54;;;;;;;3.20;3.00;;;;;;;;;;5059830;28;20036;-59
2022/08/02 11:31:19;;;;;;;3.20;3.10;;;;;;;;;;5058161;28;20656;-60
2022/08/02 11:33:47;;;;;;;3.22;3.13;;;;;;;;;;5059920;28;20506;-64
2022/08/02 11:36:13;;;;;;;2.33;2.22;;;;;;;;;;5045388;28;20384;-63
2022/08/02 11:38:38;;;;;;;3.25;3.03;;;;;;;;;;5063114;28;20039;-62
2022/08/02 11:41:04;;;;;;;2.90;2.70;;;;;;;;;;5060953;28;20060;-62
2022/08/02 11:43:32;;;;;;;3.25;2.95;;;;;;;;;;5060203;28;20021;-63
2022/08/02 11:46:00;;;;;;;2.70;2.60;;;;;;;;;;5063291;28;20489;-64
2022/08/02 11:48:33;;;;;;;2.53;2.42;;;;;;;;;;5061499;28;20070;-64
2022/08/02 11:51:27;;;;;;;3.03;2.83;;;;;;;;;;5059578;28;20028;-63
2022/08/02 11:53:56;;;;;;;2.70;2.60;;;;;;;;;;5038212;28;20046;-63
2022/08/02 11:56:25;;;;;;;2.95;2.75;;;;;;;;;;5060967;28;20028;-62
2022/08/02 11:59:03;;;;;;;3.45;3.15;;;;;;;;;;5061430;28;20035;-63
2022/08/02 12:01:31;;;;;;;3.42;3.13;;;;;;;;;;5060073;28;20498;-65
2022/08/02 12:03:59;;;;;;;3.13;3.03;;;;;;;;;;5059316;28;20143;-64
2022/08/02 12:06:27;;;;;;;3.05;2.85;;;;;;;;;;5058896;28;20059;-66
2022/08/02 12:08:57;;;;;;;2.60;2.40;;;;;;;;;;5061147;28;20020;-63
2022/08/02 12:11:22;;;;;;;2.80;2.70;;;;;;;;;;5060133;28;20386;-64
2022/08/02 12:13:47;;;;;;;2.85;2.75;;;;;;;;;;5062050;28;20025;-64
2022/08/02 12:21:41;;;;;;;4.55;3.08;;;;;;;;;;5059952;28;20504;-63
2022/08/02 12:24:07;;;;;;;2.45;2.35;;;;;;;;;;5062198;28;20032;-63
2022/08/02 12:26:46;;;;;;;4.10;2.22;;;;;;;;;;5017449;28;20392;-63
2022/08/02 12:29:12;;;;;;;3.05;2.95;;;;;;;;;;5058487;28;20025;-64
2022/08/02 12:31:41;;;;;;;2.95;2.80;;;;;;;;;;5060721;28;20601;-64
2022/08/02 12:34:13;;;;;;;2.78;2.58;;;;;;;;;;5059099;28;20024;-63
2022/08/02 12:36:39;;;;;;;2.78;2.63;;;;;;;;;;5057409;28;20444;-63
2022/08/02 12:39:09;;;;;;;2.97;2.88;;;;;;;;;;5040844;28;20029;-63
2022/08/02 12:41:36;;;;;;;3.00;2.80;;;;;;;;;;5058886;28;20524;-64
2022/08/02 12:44:01;;;;;;;2.97;2.83;;;;;;;;;;5060888;28;20463;-63
2022/08/02 12:46:26;;;;;;;2.92;2.72;;;;;;;;;;5058680;28;20051;-63
2022/08/02 12:48:52;;;;;;;2.58;2.47;;;;;;;;;;5058414;28;20487;-63
2022/08/02 12:51:23;;;;;;;3.10;3.00;;;;;;;;;;5059524;28;20542;-63
2022/08/02 12:53:49;;;;;;;2.63;2.42;;;;;;;;;;5058738;28;20028;-62
2022/08/02 12:56:30;;;;;;;3.05;2.78;;;;;;;;;;5058885;28;20492;-63
2022/08/02 12:58:56;;;;;;;2.67;2.53;;;;;;;;;;5058440;28;20067;-63
2022/08/02 13:01:25;;;;;;;2.80;2.70;;;;;;;;;;5058252;28;20108;-63
2022/08/02 13:03:51;;;;;;;2.45;2.35;;;;;;;;;;5057557;28;20032;-63
2022/08/02 13:06:17;;;;;;;3.00;2.83;;;;;;;;;;5040165;28;20025;-63
2022/08/02 13:08:42;;;;;;;3.72;2.47;;;;;;;;;;5058540;28;20033;-63
2022/08/02 13:11:07;;;;;;;2.53;2.42;;;;;;;;;;5060361;28;20467;-64
2022/08/02 13:13:33;;;;;;;3.05;2.90;;;;;;;;;;5041339;28;20036;-63
2022/08/02 13:15:58;;;;;;;2.65;2.55;;;;;;;;;;5058462;28;20682;-63
2022/08/02 13:18:24;;;;;;;3.47;3.25;;;;;;;;;;5058790;28;20099;-63
2022/08/02 13:20:49;;;;;;;4.80;2.35;;;;;;;;;;5061454;28;20169;-63
2022/08/02 13:23:14;;;;;;;2.17;2.08;;;;;;;;;;5041362;28;20052;-64
2022/08/02 13:25:42;;;;;;;3.05;2.85;;;;;;;;;;5057666;28;20040;-62
2022/08/02 13:28:08;;;;;;;3.97;3.67;;;;;;;;;;5059205;28;20352;-63
2022/08/02 13:30:33;;;;;;;2.75;2.65;;;;;;;;;;5059440;28;20039;-62
2022/08/02 13:32:59;;;;;;;3.00;2.75;;;;;;;;;;5058246;28;20024;-62
2022/08/02 13:35:24;;;;;;;3.95;3.75;;;;;;;;;;5058407;28;20486;-63
2022/08/02 13:37:49;;;;;;;2.90;2.80;;;;;;;;;;5060760;28;20058;-61
2022/08/02 13:40:15;;;;;;;3.47;3.25;;;;;;;;;;5060701;28;20486;-62
2022/08/02 13:42:40;;;;;;;2.60;2.50;;;;;;;;;;5056606;28;20113;-62
2022/08/02 13:45:05;;;;;;;3.42;3.10;;;;;;;;;;5055832;28;20162;-59
2022/08/02 13:47:31;;;;;;;3.03;2.90;;;;;;;;;;5058394;28;20510;-61
2022/08/02 13:49:56;;;;;;;2.60;2.50;;;;;;;;;;5055508;28;20032;-61
2022/08/02 13:52:21;;;;;;;3.03;2.83;;;;;;;;;;5056011;28;20092;-62
2022/08/02 13:54:46;;;;;;;3.33;3.22;;;;;;;;;;5055691;28;20046;-62
2022/08/02 13:57:12;;;;;;;3.28;3.05;;;;;;;;;;5057854;28;20032;-62
2022/08/02 13:59:37;;;;;;;2.83;2.63;;;;;;;;;;5057770;28;20113;-62
2022/08/02 14:02:02;;;;;;;2.80;2.65;;;;;;;;;;5057085;28;20036;-61
2022/08/02 14:04:29;;;;;;;2.42;2.33;;;;;;;;;;5057709;28;20528;-61
2022/08/02 14:06:54;;;;;;;3.78;3.47;;;;;;;;;;5057231;28;20028;-60
2022/08/02 14:09:20;;;;;;;2.83;2.72;;;;;;;;;;5057876;28;20514;-61
2022/08/02 14:11:46;;;;;;;3.15;3.05;;;;;;;;;;5055781;28;20033;-62
2022/08/02 14:14:11;;;;;;;3.15;2.83;;;;;;;;;;5056552;28;20052;-62
2022/08/02 14:16:36;;;;;;;3.70;2.45;;;;;;;;;;5059607;28;20424;-63
2022/08/02 14:19:02;;;;;;;2.67;2.58;;;;;;;;;;5062043;28;20032;-65
2022/08/02 14:21:27;;;;;;;2.50;2.40;;;;;;;;;;5057827;28;20039;-63
2022/08/02 14:23:53;;;;;;;3.72;3.53;;;;;;;;;;5057397;28;20048;-64
2022/08/02 14:26:18;;;;;;;3.17;2.80;;;;;;;;;;5056844;28;20115;-64
2022/08/02 14:28:43;;;;;;;2.97;2.85;;;;;;;;;;5057026;28;20110;-63
2022/08/02 14:31:09;;;;;;;2.88;2.78;;;;;;;;;;5057254;28;20029;-63
2022/08/02 14:33:34;;;;;;;2.80;2.70;;;;;;;;;;5056900;28;20058;-63
2022/08/02 14:35:59;;;;;;;2.65;2.55;;;;;;;;;;5058466;28;20098;-63
2022/08/02 14:38:24;;;;;;;2.90;2.80;;;;;;;;;;5058000;28;20450;-62
2022/08/02 14:40:50;;;;;;;3.17;3.08;;;;;;;;;;5056838;28;20199;-63
2022/08/02 14:44:02;;;;;;;3.33;3.17;;;;;;;;;;5058643;28;20714;-63
2022/08/02 14:46:00;;;;;;;3.88;3.67;;;;;;;;;;5060431;28;20098;-62
2022/08/02 14:48:25;;;;;;;3.58;3.38;;;;;;;;;;5057081;28;20533;-62
2022/08/02 14:50:51;;;;;;;3.65;2.50;;;;;;;;;;5057769;28;20429;-62